LIPE/BLQ METAR and TAF weather

Enter ICAO airport designator
Station Type Date Time Source
LIPE METAR 2019/05/26 01:50 UTC NOAA

LIPE 260150Z 30004KT 270V340 7000 -RA BKN070 15/15 Q1014


Station Type Date Time Source
LIPE Decoded METAR 2019/05/26 01:50 UTC NOAA

Bologna / Borgo Panigale, Italy (LIPE) 44-32N 011-18E 49M
May 25, 2019 - 09:50 PM EDT / 2019.05.26 0150 UTC
Wind: from the WNW (300 degrees) at 5 MPH (4 KT) (direction variable):0
Visibility: 4 mile(s):0
Sky conditions: mostly cloudy
Weather: light rain
Temperature: 59 F (15 C)
Dew Point: 59 F (15 C)
Relative Humidity: 100%
Pressure (altimeter): 29.94 in. Hg (1014 hPa)
ob: LIPE 260150Z 30004KT 270V340 7000 -RA BKN070 15/15 Q1014
cycle: 2

Station Type Date Time Source
LIPE TAF 2019/05/25 20:44 UTC NOAA

TAF
AMD LIPE 252039Z 2520/2618 VRB05KT 9999 FEW030
TEMPO 2620/2624 4000 TSRA
TEMPO 2609/2618 SHRA

Example: see airport list